sensor_id;sensor_type;location;lat;lon;timestamp;P1;durP1;ratioP1;P2;durP2;ratioP2
17858;SDS011;35426;30.698;104.050;2022-08-25T00:01:23;20.67;;;15.30;;
17858;SDS011;35426;30.698;104.050;2022-08-25T00:03:59;16.63;;;14.57;;
17858;SDS011;35426;30.698;104.050;2022-08-25T00:06:36;19.43;;;14.40;;
17858;SDS011;35426;30.698;104.050;2022-08-25T00:09:11;19.47;;;15.13;;
17858;SDS011;35426;30.698;104.050;2022-08-25T00:11:47;18.87;;;15.50;;
17858;SDS011;35426;30.698;104.050;2022-08-25T00:14:22;23.83;;;15.23;;
17858;SDS011;35426;30.698;104.050;2022-08-25T00:16:57;22.80;;;15.63;;
17858;SDS011;35426;30.698;104.050;2022-08-25T00:19:34;18.53;;;16.00;;
17858;SDS011;35426;30.698;104.050;2022-08-25T00:22:08;20.93;;;16.03;;
17858;SDS011;35426;30.698;104.050;2022-08-25T00:24:41;22.13;;;16.33;;
17858;SDS011;35426;30.698;104.050;2022-08-25T00:27:16;18.60;;;15.93;;
17858;SDS011;35426;30.698;104.050;2022-08-25T00:29:50;25.37;;;15.73;;
17858;SDS011;35426;30.698;104.050;2022-08-25T00:32:24;25.53;;;15.57;;
17858;SDS011;35426;30.698;104.050;2022-08-25T00:34:58;19.47;;;14.93;;
17858;SDS011;35426;30.698;104.050;2022-08-25T00:37:32;18.83;;;14.97;;
17858;SDS011;35426;30.698;104.050;2022-08-25T00:40:06;22.50;;;14.57;;
17858;SDS011;35426;30.698;104.050;2022-08-25T00:42:43;22.17;;;14.47;;
17858;SDS011;35426;30.698;104.050;2022-08-25T00:45:17;20.67;;;14.97;;
17858;SDS011;35426;30.698;104.050;2022-08-25T00:47:52;21.33;;;15.37;;
17858;SDS011;35426;30.698;104.050;2022-08-25T00:50:27;23.58;;;14.88;;
17858;SDS011;35426;30.698;104.050;2022-08-25T00:53:03;20.70;;;15.43;;
17858;SDS011;35426;30.698;104.050;2022-08-25T00:55:39;22.02;;;16.00;;
17858;SDS011;35426;30.698;104.050;2022-08-25T00:58:15;22.10;;;15.07;;
17858;SDS011;35426;30.698;104.050;2022-08-25T01:00:53;19.77;;;16.07;;
17858;SDS011;35426;30.698;104.050;2022-08-25T01:03:29;24.20;;;15.65;;
17858;SDS011;35426;30.698;104.050;2022-08-25T01:06:04;24.88;;;15.98;;
17858;SDS011;35426;30.698;104.050;2022-08-25T01:08:38;18.15;;;14.60;;
17858;SDS011;35426;30.698;104.050;2022-08-25T01:11:15;19.00;;;15.38;;
17858;SDS011;35426;30.698;104.050;2022-08-25T01:13:53;25.38;;;15.25;;
17858;SDS011;35426;30.698;104.050;2022-08-25T01:16:32;19.55;;;15.30;;
17858;SDS011;35426;30.698;104.050;2022-08-25T01:19:07;19.80;;;15.15;;
17858;SDS011;35426;30.698;104.050;2022-08-25T01:21:44;17.67;;;14.35;;
17858;SDS011;35426;30.698;104.050;2022-08-25T01:24:23;17.15;;;14.50;;
17858;SDS011;35426;30.698;104.050;2022-08-25T01:27:03;18.13;;;13.55;;
17858;SDS011;35426;30.698;104.050;2022-08-25T01:29:37;18.55;;;14.48;;
17858;SDS011;35426;30.698;104.050;2022-08-25T01:32:23;20.27;;;14.88;;
17858;SDS011;35426;30.698;104.050;2022-08-25T01:34:59;18.92;;;14.13;;
17858;SDS011;35426;30.698;104.050;2022-08-25T01:37:35;18.52;;;13.80;;
17858;SDS011;35426;30.698;104.050;2022-08-25T01:40:10;15.98;;;12.77;;
17858;SDS011;35426;30.698;104.050;2022-08-25T01:42:52;18.70;;;12.98;;
17858;SDS011;35426;30.698;104.050;2022-08-25T01:45:29;17.73;;;12.88;;
17858;SDS011;35426;30.698;104.050;2022-08-25T01:48:03;17.13;;;12.43;;
17858;SDS011;35426;30.698;104.050;2022-08-25T01:50:38;17.40;;;13.23;;
17858;SDS011;35426;30.698;104.050;2022-08-25T01:53:21;16.48;;;12.02;;
17858;SDS011;35426;30.698;104.050;2022-08-25T01:56:10;14.95;;;11.95;;
17858;SDS011;35426;30.698;104.050;2022-08-25T01:58:46;14.85;;;11.80;;
17858;SDS011;35426;30.698;104.050;2022-08-25T02:01:21;15.15;;;10.88;;
17858;SDS011;35426;30.698;104.050;2022-08-25T02:03:55;12.02;;;9.88;;
17858;SDS011;35426;30.698;104.050;2022-08-25T02:06:31;15.30;;;10.50;;
17858;SDS011;35426;30.698;104.050;2022-08-25T02:09:10;18.42;;;10.73;;
17858;SDS011;35426;30.698;104.050;2022-08-25T02:11:46;14.48;;;10.35;;
17858;SDS011;35426;30.698;104.050;2022-08-25T02:14:19;13.52;;;10.65;;
17858;SDS011;35426;30.698;104.050;2022-08-25T02:16:54;15.60;;;10.57;;
17858;SDS011;35426;30.698;104.050;2022-08-25T02:19:28;18.25;;;12.00;;
17858;SDS011;35426;30.698;104.050;2022-08-25T02:22:02;15.70;;;12.13;;
17858;SDS011;35426;30.698;104.050;2022-08-25T02:24:38;23.05;;;13.25;;
17858;SDS011;35426;30.698;104.050;2022-08-25T02:27:12;18.55;;;13.30;;
17858;SDS011;35426;30.698;104.050;2022-08-25T02:29:45;16.30;;;12.70;;
17858;SDS011;35426;30.698;104.050;2022-08-25T02:32:19;19.92;;;13.80;;
17858;SDS011;35426;30.698;104.050;2022-08-25T02:34:52;21.45;;;14.80;;
17858;SDS011;35426;30.698;104.050;2022-08-25T02:37:26;18.13;;;14.40;;
17858;SDS011;35426;30.698;104.050;2022-08-25T02:40:02;17.58;;;13.30;;
17858;SDS011;35426;30.698;104.050;2022-08-25T02:42:43;17.05;;;12.95;;
17858;SDS011;35426;30.698;104.050;2022-08-25T02:45:16;21.55;;;13.20;;
17858;SDS011;35426;30.698;104.050;2022-08-25T02:47:50;17.92;;;13.35;;
17858;SDS011;35426;30.698;104.050;2022-08-25T02:50:26;19.55;;;14.10;;
17858;SDS011;35426;30.698;104.050;2022-08-25T02:53:00;18.48;;;13.00;;
17858;SDS011;35426;30.698;104.050;2022-08-25T02:55:35;17.60;;;12.75;;
17858;SDS011;35426;30.698;104.050;2022-08-25T02:58:10;14.95;;;13.05;;
17858;SDS011;35426;30.698;104.050;2022-08-25T03:00:45;17.10;;;12.88;;
17858;SDS011;35426;30.698;104.050;2022-08-25T03:03:21;20.92;;;12.65;;
17858;SDS011;35426;30.698;104.050;2022-08-25T03:05:55;14.68;;;11.90;;
17858;SDS011;35426;30.698;104.050;2022-08-25T03:08:29;15.90;;;11.18;;
17858;SDS011;35426;30.698;104.050;2022-08-25T03:11:05;14.55;;;10.40;;
17858;SDS011;35426;30.698;104.050;2022-08-25T03:13:39;19.23;;;11.07;;
17858;SDS011;35426;30.698;104.050;2022-08-25T03:16:16;12.90;;;11.25;;
17858;SDS011;35426;30.698;104.050;2022-08-25T03:18:55;12.85;;;10.90;;
17858;SDS011;35426;30.698;104.050;2022-08-25T03:21:32;17.58;;;11.48;;
17858;SDS011;35426;30.698;104.050;2022-08-25T03:24:08;18.00;;;12.18;;
17858;SDS011;35426;30.698;104.050;2022-08-25T03:26:44;17.25;;;13.13;;
17858;SDS011;35426;30.698;104.050;2022-08-25T03:29:23;18.63;;;13.07;;
17858;SDS011;35426;30.698;104.050;2022-08-25T03:31:57;18.85;;;13.38;;
17858;SDS011;35426;30.698;104.050;2022-08-25T03:34:32;20.85;;;12.60;;
17858;SDS011;35426;30.698;104.050;2022-08-25T03:37:05;16.58;;;12.18;;
17858;SDS011;35426;30.698;104.050;2022-08-25T03:39:39;20.15;;;13.52;;
17858;SDS011;35426;30.698;104.050;2022-08-25T03:42:15;18.17;;;13.27;;
17858;SDS011;35426;30.698;104.050;2022-08-25T03:44:48;17.90;;;13.05;;
17858;SDS011;35426;30.698;104.050;2022-08-25T03:47:24;14.75;;;11.68;;
17858;SDS011;35426;30.698;104.050;2022-08-25T03:49:57;15.52;;;11.65;;
17858;SDS011;35426;30.698;104.050;2022-08-25T03:52:31;20.30;;;12.07;;
17858;SDS011;35426;30.698;104.050;2022-08-25T03:55:14;14.90;;;11.88;;
17858;SDS011;35426;30.698;104.050;2022-08-25T03:57:50;16.77;;;11.50;;
17858;SDS011;35426;30.698;104.050;2022-08-25T04:00:24;15.48;;;11.32;;
17858;SDS011;35426;30.698;104.050;2022-08-25T04:02:58;16.73;;;11.75;;
17858;SDS011;35426;30.698;104.050;2022-08-25T04:05:35;15.55;;;11.63;;
17858;SDS011;35426;30.698;104.050;2022-08-25T04:08:08;13.35;;;11.40;;
17858;SDS011;35426;30.698;104.050;2022-08-25T04:10:42;13.93;;;11.43;;
17858;SDS011;35426;30.698;104.050;2022-08-25T04:13:22;15.90;;;11.50;;
17858;SDS011;35426;30.698;104.050;2022-08-25T04:15:56;17.15;;;11.73;;
17858;SDS011;35426;30.698;104.050;2022-08-25T04:18:30;12.65;;;10.35;;
17858;SDS011;35426;30.698;104.050;2022-08-25T04:21:04;13.77;;;11.07;;
17858;SDS011;35426;30.698;104.050;2022-08-25T04:23:40;15.52;;;10.60;;
17858;SDS011;35426;30.698;104.050;2022-08-25T04:26:15;14.00;;;10.85;;
17858;SDS011;35426;30.698;104.050;2022-08-25T04:28:52;13.60;;;10.60;;
17858;SDS011;35426;30.698;104.050;2022-08-25T04:31:28;15.05;;;10.65;;
17858;SDS011;35426;30.698;104.050;2022-08-25T04:34:03;13.27;;;10.15;;
17858;SDS011;35426;30.698;104.050;2022-08-25T04:36:58;15.80;;;10.40;;
17858;SDS011;35426;30.698;104.050;2022-08-25T04:39:33;14.45;;;10.35;;
17858;SDS011;35426;30.698;104.050;2022-08-25T04:42:07;11.90;;;10.07;;
17858;SDS011;35426;30.698;104.050;2022-08-25T04:44:43;13.32;;;9.70;;
17858;SDS011;35426;30.698;104.050;2022-08-25T04:47:18;10.63;;;8.95;;
17858;SDS011;35426;30.698;104.050;2022-08-25T04:49:54;12.82;;;9.43;;
17858;SDS011;35426;30.698;104.050;2022-08-25T04:52:29;11.90;;;8.90;;
17858;SDS011;35426;30.698;104.050;2022-08-25T04:55:03;15.10;;;9.60;;
17858;SDS011;35426;30.698;104.050;2022-08-25T04:57:37;15.05;;;10.43;;
17858;SDS011;35426;30.698;104.050;2022-08-25T05:00:13;11.70;;;9.85;;
17858;SDS011;35426;30.698;104.050;2022-08-25T05:02:48;13.88;;;9.60;;
17858;SDS011;35426;30.698;104.050;2022-08-25T05:05:22;11.07;;;9.38;;
17858;SDS011;35426;30.698;104.050;2022-08-25T05:07:56;11.98;;;9.63;;
17858;SDS011;35426;30.698;104.050;2022-08-25T05:10:31;15.80;;;9.68;;
17858;SDS011;35426;30.698;104.050;2022-08-25T05:13:05;12.43;;;9.73;;
17858;SDS011;35426;30.698;104.050;2022-08-25T05:15:41;13.27;;;9.93;;
17858;SDS011;35426;30.698;104.050;2022-08-25T05:18:22;14.45;;;8.45;;
17858;SDS011;35426;30.698;104.050;2022-08-25T05:21:00;12.13;;;8.90;;
17858;SDS011;35426;30.698;104.050;2022-08-25T05:23:36;12.10;;;10.38;;
17858;SDS011;35426;30.698;104.050;2022-08-25T05:26:10;14.10;;;10.00;;
17858;SDS011;35426;30.698;104.050;2022-08-25T05:28:48;14.60;;;9.77;;
17858;SDS011;35426;30.698;104.050;2022-08-25T05:31:25;12.52;;;10.02;;
17858;SDS011;35426;30.698;104.050;2022-08-25T05:34:02;12.73;;;9.60;;
17858;SDS011;35426;30.698;104.050;2022-08-25T05:36:38;13.52;;;9.98;;
17858;SDS011;35426;30.698;104.050;2022-08-25T05:39:12;12.70;;;10.48;;
17858;SDS011;35426;30.698;104.050;2022-08-25T05:41:46;13.98;;;10.35;;
17858;SDS011;35426;30.698;104.050;2022-08-25T05:44:20;11.82;;;9.57;;
17858;SDS011;35426;30.698;104.050;2022-08-25T05:46:56;12.65;;;10.25;;
17858;SDS011;35426;30.698;104.050;2022-08-25T05:49:30;13.88;;;10.70;;
17858;SDS011;35426;30.698;104.050;2022-08-25T05:52:04;11.82;;;10.57;;
17858;SDS011;35426;30.698;104.050;2022-08-25T05:54:42;14.23;;;10.32;;
17858;SDS011;35426;30.698;104.050;2022-08-25T05:57:16;11.32;;;10.13;;
17858;SDS011;35426;30.698;104.050;2022-08-25T05:59:50;12.25;;;10.50;;
17858;SDS011;35426;30.698;104.050;2022-08-25T06:02:27;19.83;;;11.55;;
17858;SDS011;35426;30.698;104.050;2022-08-25T06:05:16;15.40;;;10.90;;
17858;SDS011;35426;30.698;104.050;2022-08-25T06:07:51;16.35;;;11.55;;
17858;SDS011;35426;30.698;104.050;2022-08-25T06:10:24;13.13;;;11.73;;
17858;SDS011;35426;30.698;104.050;2022-08-25T06:13:00;15.75;;;11.00;;
17858;SDS011;35426;30.698;104.050;2022-08-25T06:15:34;15.52;;;11.70;;
17858;SDS011;35426;30.698;104.050;2022-08-25T06:18:11;14.75;;;11.10;;
17858;SDS011;35426;30.698;104.050;2022-08-25T06:20:47;13.65;;;11.18;;
17858;SDS011;35426;30.698;104.050;2022-08-25T06:23:21;13.98;;;11.07;;
17858;SDS011;35426;30.698;104.050;2022-08-25T06:26:09;13.63;;;11.02;;
17858;SDS011;35426;30.698;104.050;2022-08-25T06:28:48;13.82;;;11.82;;
17858;SDS011;35426;30.698;104.050;2022-08-25T06:31:22;15.85;;;11.60;;
17858;SDS011;35426;30.698;104.050;2022-08-25T06:33:59;13.55;;;11.88;;
17858;SDS011;35426;30.698;104.050;2022-08-25T06:36:34;15.00;;;12.88;;
17858;SDS011;35426;30.698;104.050;2022-08-25T06:39:09;16.88;;;12.85;;
17858;SDS011;35426;30.698;104.050;2022-08-25T06:41:42;14.82;;;12.52;;
17858;SDS011;35426;30.698;104.050;2022-08-25T06:44:17;13.13;;;11.75;;
17858;SDS011;35426;30.698;104.050;2022-08-25T06:46:52;17.88;;;11.43;;
17858;SDS011;35426;30.698;104.050;2022-08-25T06:49:28;17.40;;;12.18;;
17858;SDS011;35426;30.698;104.050;2022-08-25T06:52:03;16.35;;;12.27;;
17858;SDS011;35426;30.698;104.050;2022-08-25T06:54:37;16.58;;;12.15;;
17858;SDS011;35426;30.698;104.050;2022-08-25T06:57:15;13.20;;;11.75;;
17858;SDS011;35426;30.698;104.050;2022-08-25T06:59:50;15.43;;;11.68;;
17858;SDS011;35426;30.698;104.050;2022-08-25T07:02:28;13.32;;;11.55;;
17858;SDS011;35426;30.698;104.050;2022-08-25T07:05:06;14.30;;;12.57;;
17858;SDS011;35426;30.698;104.050;2022-08-25T07:08:00;17.90;;;12.23;;
17858;SDS011;35426;30.698;104.050;2022-08-25T07:10:34;17.75;;;14.13;;
17858;SDS011;35426;30.698;104.050;2022-08-25T07:13:14;17.10;;;13.45;;
17858;SDS011;35426;30.698;104.050;2022-08-25T07:15:51;15.75;;;12.38;;
17858;SDS011;35426;30.698;104.050;2022-08-25T07:18:28;20.40;;;12.48;;
17858;SDS011;35426;30.698;104.050;2022-08-25T07:21:04;16.38;;;12.57;;
17858;SDS011;35426;30.698;104.050;2022-08-25T07:23:43;19.05;;;12.20;;
17858;SDS011;35426;30.698;104.050;2022-08-25T07:26:17;18.15;;;12.15;;
17858;SDS011;35426;30.698;104.050;2022-08-25T07:29:08;14.68;;;11.48;;
17858;SDS011;35426;30.698;104.050;2022-08-25T07:31:44;16.35;;;11.68;;
17858;SDS011;35426;30.698;104.050;2022-08-25T07:34:22;13.30;;;10.70;;
17858;SDS011;35426;30.698;104.050;2022-08-25T07:37:21;18.13;;;12.30;;
17858;SDS011;35426;30.698;104.050;2022-08-25T07:40:16;13.18;;;11.15;;
17858;SDS011;35426;30.698;104.050;2022-08-25T07:42:56;15.13;;;10.48;;
17858;SDS011;35426;30.698;104.050;2022-08-25T07:45:34;11.75;;;10.13;;
17858;SDS011;35426;30.698;104.050;2022-08-25T07:48:16;19.27;;;11.52;;
17858;SDS011;35426;30.698;104.050;2022-08-25T07:50:50;15.20;;;10.77;;
17858;SDS011;35426;30.698;104.050;2022-08-25T07:53:26;11.75;;;10.50;;
17858;SDS011;35426;30.698;104.050;2022-08-25T07:56:00;12.35;;;10.35;;
17858;SDS011;35426;30.698;104.050;2022-08-25T07:58:34;12.20;;;10.68;;
17858;SDS011;35426;30.698;104.050;2022-08-25T08:01:12;12.40;;;9.77;;
17858;SDS011;35426;30.698;104.050;2022-08-25T08:03:47;14.52;;;10.93;;
17858;SDS011;35426;30.698;104.050;2022-08-25T08:06:22;14.80;;;9.85;;
17858;SDS011;35426;30.698;104.050;2022-08-25T08:08:58;13.40;;;9.63;;
17858;SDS011;35426;30.698;104.050;2022-08-25T08:11:33;10.95;;;9.15;;
17858;SDS011;35426;30.698;104.050;2022-08-25T08:14:21;11.80;;;9.43;;
17858;SDS011;35426;30.698;104.050;2022-08-25T08:16:54;11.48;;;9.05;;
17858;SDS011;35426;30.698;104.050;2022-08-25T08:19:30;13.65;;;9.43;;
17858;SDS011;35426;30.698;104.050;2022-08-25T08:22:05;11.13;;;8.55;;
17858;SDS011;35426;30.698;104.050;2022-08-25T08:24:42;13.55;;;9.05;;
17858;SDS011;35426;30.698;104.050;2022-08-25T08:27:22;10.75;;;9.07;;
17858;SDS011;35426;30.698;104.050;2022-08-25T08:29:56;11.15;;;8.30;;
17858;SDS011;35426;30.698;104.050;2022-08-25T08:32:29;11.70;;;8.38;;
17858;SDS011;35426;30.698;104.050;2022-08-25T08:35:23;11.68;;;9.75;;
17858;SDS011;35426;30.698;104.050;2022-08-25T08:37:57;15.05;;;9.55;;
17858;SDS011;35426;30.698;104.050;2022-08-25T08:40:32;13.77;;;8.00;;
17858;SDS011;35426;30.698;104.050;2022-08-25T08:43:35;14.40;;;8.88;;
17858;SDS011;35426;30.698;104.050;2022-08-25T08:46:09;13.38;;;8.63;;
17858;SDS011;35426;30.698;104.050;2022-08-25T08:48:49;12.07;;;8.57;;
17858;SDS011;35426;30.698;104.050;2022-08-25T08:51:34;8.95;;;8.05;;
17858;SDS011;35426;30.698;104.050;2022-08-25T08:54:16;10.55;;;8.32;;
17858;SDS011;35426;30.698;104.050;2022-08-25T08:57:04;11.75;;;8.50;;
17858;SDS011;35426;30.698;104.050;2022-08-25T08:59:42;13.45;;;8.07;;
17858;SDS011;35426;30.698;104.050;2022-08-25T09:02:24;8.73;;;7.82;;
17858;SDS011;35426;30.698;104.050;2022-08-25T09:05:17;11.65;;;8.60;;
17858;SDS011;35426;30.698;104.050;2022-08-25T09:07:54;10.85;;;8.05;;
17858;SDS011;35426;30.698;104.050;2022-08-25T09:10:32;10.23;;;7.43;;
17858;SDS011;35426;30.698;104.050;2022-08-25T09:13:17;9.48;;;7.55;;
17858;SDS011;35426;30.698;104.050;2022-08-25T09:16:00;10.90;;;7.38;;
17858;SDS011;35426;30.698;104.050;2022-08-25T09:19:05;9.55;;;7.95;;
17858;SDS011;35426;30.698;104.050;2022-08-25T09:21:52;8.77;;;6.90;;
17858;SDS011;35426;30.698;104.050;2022-08-25T09:24:54;7.65;;;6.85;;
17858;SDS011;35426;30.698;104.050;2022-08-25T09:27:38;8.23;;;6.60;;
17858;SDS011;35426;30.698;104.050;2022-08-25T09:30:20;12.48;;;6.82;;
17858;SDS011;35426;30.698;104.050;2022-08-25T09:32:54;10.25;;;6.78;;
17858;SDS011;35426;30.698;104.050;2022-08-25T09:35:33;11.77;;;7.15;;
17858;SDS011;35426;30.698;104.050;2022-08-25T09:38:07;8.15;;;6.88;;
17858;SDS011;35426;30.698;104.050;2022-08-25T09:40:43;10.77;;;7.03;;
17858;SDS011;35426;30.698;104.050;2022-08-25T09:43:21;7.68;;;6.63;;
17858;SDS011;35426;30.698;104.050;2022-08-25T09:46:02;7.75;;;6.63;;
17858;SDS011;35426;30.698;104.050;2022-08-25T09:48:42;7.80;;;6.20;;
17858;SDS011;35426;30.698;104.050;2022-08-25T09:51:25;11.10;;;5.90;;
17858;SDS011;35426;30.698;104.050;2022-08-25T09:54:17;7.70;;;5.97;;
17858;SDS011;35426;30.698;104.050;2022-08-25T09:57:11;7.22;;;6.07;;
17858;SDS011;35426;30.698;104.050;2022-08-25T10:00:11;9.05;;;6.55;;
17858;SDS011;35426;30.698;104.050;2022-08-25T10:03:08;10.95;;;6.18;;
17858;SDS011;35426;30.698;104.050;2022-08-25T10:05:58;7.05;;;5.60;;
17858;SDS011;35426;30.698;104.050;2022-08-25T10:08:50;7.38;;;6.05;;
17858;SDS011;35426;30.698;104.050;2022-08-25T10:14:26;8.20;;;6.15;;
17858;SDS011;35426;30.698;104.050;2022-08-25T10:17:12;9.48;;;5.50;;
17858;SDS011;35426;30.698;104.050;2022-08-25T10:22:48;6.90;;;5.50;;
17858;SDS011;35426;30.698;104.050;2022-08-25T10:25:30;7.75;;;5.30;;
17858;SDS011;35426;30.698;104.050;2022-08-25T10:28:07;8.85;;;5.97;;
17858;SDS011;35426;30.698;104.050;2022-08-25T10:30:50;8.95;;;5.65;;
17858;SDS011;35426;30.698;104.050;2022-08-25T10:33:38;8.30;;;5.50;;
17858;SDS011;35426;30.698;104.050;2022-08-25T10:36:26;6.47;;;5.10;;
17858;SDS011;35426;30.698;104.050;2022-08-25T10:39:16;9.05;;;5.20;;
17858;SDS011;35426;30.698;104.050;2022-08-25T10:42:06;8.73;;;5.40;;
17858;SDS011;35426;30.698;104.050;2022-08-25T10:44:56;6.47;;;4.90;;
17858;SDS011;35426;30.698;104.050;2022-08-25T10:48:04;7.93;;;4.93;;
17858;SDS011;35426;30.698;104.050;2022-08-25T10:50:51;7.57;;;4.60;;
17858;SDS011;35426;30.698;104.050;2022-08-25T10:53:38;10.40;;;4.90;;
17858;SDS011;35426;30.698;104.050;2022-08-25T10:56:26;8.50;;;4.67;;
17858;SDS011;35426;30.698;104.050;2022-08-25T10:59:17;6.17;;;4.90;;
17858;SDS011;35426;30.698;104.050;2022-08-25T11:05:09;6.00;;;4.87;;
17858;SDS011;35426;30.698;104.050;2022-08-25T11:07:52;5.10;;;4.60;;
17858;SDS011;35426;30.698;104.050;2022-08-25T11:10:39;7.67;;;4.80;;
17858;SDS011;35426;30.698;104.050;2022-08-25T11:13:18;6.37;;;4.30;;
17858;SDS011;35426;30.698;104.050;2022-08-25T11:16:00;4.67;;;4.20;;
17858;SDS011;35426;30.698;104.050;2022-08-25T11:18:50;4.97;;;4.47;;
17858;SDS011;35426;30.698;104.050;2022-08-25T11:21:33;5.90;;;3.80;;
17858;SDS011;35426;30.698;104.050;2022-08-25T11:27:30;5.17;;;3.70;;
17858;SDS011;35426;30.698;104.050;2022-08-25T11:30:09;5.00;;;3.93;;
17858;SDS011;35426;30.698;104.050;2022-08-25T11:32:46;4.93;;;3.80;;
17858;SDS011;35426;30.698;104.050;2022-08-25T11:35:25;4.57;;;4.17;;
17858;SDS011;35426;30.698;104.050;2022-08-25T11:38:14;8.03;;;4.13;;
17858;SDS011;35426;30.698;104.050;2022-08-25T11:44:03;7.40;;;3.83;;
17858;SDS011;35426;30.698;104.050;2022-08-25T11:46:52;4.97;;;3.60;;
17858;SDS011;35426;30.698;104.050;2022-08-25T11:49:49;6.00;;;4.13;;
17858;SDS011;35426;30.698;104.050;2022-08-25T11:52:41;4.83;;;3.90;;
17858;SDS011;35426;30.698;104.050;2022-08-25T11:55:19;5.07;;;3.80;;
17858;SDS011;35426;30.698;104.050;2022-08-25T11:58:21;6.43;;;3.87;;
17858;SDS011;35426;30.698;104.050;2022-08-25T12:01:09;6.17;;;3.60;;
17858;SDS011;35426;30.698;104.050;2022-08-25T12:04:13;9.83;;;3.83;;
17858;SDS011;35426;30.698;104.050;2022-08-25T12:07:18;5.40;;;3.80;;
17858;SDS011;35426;30.698;104.050;2022-08-25T12:14:16;8.87;;;3.80;;
17858;SDS011;35426;30.698;104.050;2022-08-25T12:17:35;3.73;;;3.33;;
17858;SDS011;35426;30.698;104.050;2022-08-25T12:20:10;5.67;;;3.90;;
17858;SDS011;35426;30.698;104.050;2022-08-25T12:22:52;6.90;;;2.90;;
17858;SDS011;35426;30.698;104.050;2022-08-25T12:28:34;5.77;;;2.83;;
17858;SDS011;35426;30.698;104.050;2022-08-25T12:31:23;3.43;;;2.80;;
17858;SDS011;35426;30.698;104.050;2022-08-25T12:34:23;5.60;;;3.10;;
17858;SDS011;35426;30.698;104.050;2022-08-25T12:37:11;4.00;;;2.80;;
17858;SDS011;35426;30.698;104.050;2022-08-25T12:39:53;3.53;;;2.50;;
17858;SDS011;35426;30.698;104.050;2022-08-25T12:42:30;4.70;;;2.80;;
17858;SDS011;35426;30.698;104.050;2022-08-25T12:45:08;8.13;;;2.70;;
17858;SDS011;35426;30.698;104.050;2022-08-25T12:47:45;4.90;;;2.80;;
17858;SDS011;35426;30.698;104.050;2022-08-25T12:50:34;2.90;;;2.60;;
17858;SDS011;35426;30.698;104.050;2022-08-25T12:53:13;4.87;;;2.80;;
17858;SDS011;35426;30.698;104.050;2022-08-25T12:55:56;4.63;;;2.70;;
17858;SDS011;35426;30.698;104.050;2022-08-25T12:58:46;9.10;;;2.90;;
17858;SDS011;35426;30.698;104.050;2022-08-25T13:01:37;2.83;;;2.63;;
17858;SDS011;35426;30.698;104.050;2022-08-25T13:04:37;3.97;;;2.60;;
17858;SDS011;35426;30.698;104.050;2022-08-25T13:07:45;6.50;;;2.70;;
17858;SDS011;35426;30.698;104.050;2022-08-25T13:10:44;7.80;;;3.00;;
17858;SDS011;35426;30.698;104.050;2022-08-25T13:13:28;3.67;;;2.60;;
17858;SDS011;35426;30.698;104.050;2022-08-25T13:16:15;6.37;;;2.60;;
17858;SDS011;35426;30.698;104.050;2022-08-25T13:18:56;3.63;;;2.40;;
17858;SDS011;35426;30.698;104.050;2022-08-25T13:21:37;5.70;;;2.90;;
17858;SDS011;35426;30.698;104.050;2022-08-25T13:24:24;4.17;;;2.40;;
17858;SDS011;35426;30.698;104.050;2022-08-25T13:27:08;5.47;;;2.60;;
17858;SDS011;35426;30.698;104.050;2022-08-25T13:29:52;4.60;;;2.83;;
17858;SDS011;35426;30.698;104.050;2022-08-25T13:32:32;3.93;;;2.63;;
17858;SDS011;35426;30.698;104.050;2022-08-25T13:35:11;4.13;;;2.30;;
17858;SDS011;35426;30.698;104.050;2022-08-25T13:37:49;5.47;;;2.67;;
17858;SDS011;35426;30.698;104.050;2022-08-25T13:40:24;3.17;;;2.50;;
17858;SDS011;35426;30.698;104.050;2022-08-25T13:43:03;5.43;;;2.53;;
17858;SDS011;35426;30.698;104.050;2022-08-25T13:45:41;4.93;;;2.30;;
17858;SDS011;35426;30.698;104.050;2022-08-25T13:48:36;3.57;;;2.30;;
17858;SDS011;35426;30.698;104.050;2022-08-25T13:51:23;6.10;;;2.60;;
17858;SDS011;35426;30.698;104.050;2022-08-25T13:54:03;2.97;;;2.40;;
17858;SDS011;35426;30.698;104.050;2022-08-25T13:56:42;5.43;;;2.57;;
17858;SDS011;35426;30.698;104.050;2022-08-25T13:59:22;4.17;;;2.77;;
17858;SDS011;35426;30.698;104.050;2022-08-25T14:02:08;3.70;;;2.67;;
17858;SDS011;35426;30.698;104.050;2022-08-25T14:04:47;3.97;;;2.53;;
17858;SDS011;35426;30.698;104.050;2022-08-25T14:07:26;3.73;;;2.80;;
17858;SDS011;35426;30.698;104.050;2022-08-25T14:10:04;5.27;;;2.40;;
17858;SDS011;35426;30.698;104.050;2022-08-25T14:12:45;4.13;;;2.83;;
17858;SDS011;35426;30.698;104.050;2022-08-25T14:15:38;2.93;;;2.57;;
17858;SDS011;35426;30.698;104.050;2022-08-25T14:18:24;3.27;;;2.43;;
17858;SDS011;35426;30.698;104.050;2022-08-25T14:21:08;8.13;;;2.80;;
17858;SDS011;35426;30.698;104.050;2022-08-25T14:23:43;6.30;;;2.97;;
17858;SDS011;35426;30.698;104.050;2022-08-25T14:26:19;5.67;;;2.90;;
17858;SDS011;35426;30.698;104.050;2022-08-25T14:28:57;4.60;;;3.10;;
17858;SDS011;35426;30.698;104.050;2022-08-25T14:31:35;4.00;;;2.90;;
17858;SDS011;35426;30.698;104.050;2022-08-25T14:34:13;7.97;;;3.27;;
17858;SDS011;35426;30.698;104.050;2022-08-25T14:36:55;5.50;;;3.30;;
17858;SDS011;35426;30.698;104.050;2022-08-25T14:39:31;6.97;;;3.30;;
17858;SDS011;35426;30.698;104.050;2022-08-25T14:42:08;7.67;;;3.23;;
17858;SDS011;35426;30.698;104.050;2022-08-25T14:44:56;7.60;;;3.50;;
17858;SDS011;35426;30.698;104.050;2022-08-25T14:47:34;5.13;;;3.40;;
17858;SDS011;35426;30.698;104.050;2022-08-25T14:50:20;6.07;;;3.40;;
17858;SDS011;35426;30.698;104.050;2022-08-25T14:53:04;7.63;;;3.30;;
17858;SDS011;35426;30.698;104.050;2022-08-25T14:55:37;6.30;;;3.60;;
17858;SDS011;35426;30.698;104.050;2022-08-25T14:58:15;5.27;;;3.20;;
17858;SDS011;35426;30.698;104.050;2022-08-25T15:00:56;9.10;;;3.47;;
17858;SDS011;35426;30.698;104.050;2022-08-25T15:03:33;6.13;;;3.87;;
17858;SDS011;35426;30.698;104.050;2022-08-25T15:06:25;6.27;;;3.43;;
17858;SDS011;35426;30.698;104.050;2022-08-25T15:09:00;6.67;;;3.23;;
17858;SDS011;35426;30.698;104.050;2022-08-25T15:11:43;7.27;;;3.57;;
17858;SDS011;35426;30.698;104.050;2022-08-25T15:14:31;7.97;;;3.30;;
17858;SDS011;35426;30.698;104.050;2022-08-25T15:17:19;6.87;;;3.30;;
17858;SDS011;35426;30.698;104.050;2022-08-25T15:20:11;7.13;;;3.47;;
17858;SDS011;35426;30.698;104.050;2022-08-25T15:22:47;6.27;;;3.30;;
17858;SDS011;35426;30.698;104.050;2022-08-25T15:25:23;6.13;;;3.43;;
17858;SDS011;35426;30.698;104.050;2022-08-25T15:28:02;6.60;;;3.50;;
17858;SDS011;35426;30.698;104.050;2022-08-25T15:30:47;6.40;;;3.30;;
17858;SDS011;35426;30.698;104.050;2022-08-25T15:33:24;7.60;;;3.47;;
17858;SDS011;35426;30.698;104.050;2022-08-25T15:35:58;3.73;;;2.97;;
17858;SDS011;35426;30.698;104.050;2022-08-25T15:38:52;4.97;;;3.13;;
17858;SDS011;35426;30.698;104.050;2022-08-25T15:41:33;6.97;;;3.10;;
17858;SDS011;35426;30.698;104.050;2022-08-25T15:44:11;4.23;;;3.07;;